createdAt,value
2022-10-28T00:01:41.873Z,55.10
2022-10-28T00:04:16.917Z,55.20
2022-10-28T00:06:51.839Z,55.30
2022-10-28T00:09:26.771Z,55.80
2022-10-28T00:12:01.688Z,55.90
2022-10-28T00:14:36.711Z,55.90
2022-10-28T00:17:11.633Z,56.20
2022-10-28T00:19:46.539Z,56.30
2022-10-28T00:22:21.430Z,56.40
2022-10-28T00:24:56.290Z,56.70
2022-10-28T00:27:33.202Z,56.80
2022-10-28T00:30:08.633Z,56.90
2022-10-28T00:32:43.555Z,56.90
2022-10-28T00:35:18.495Z,57.10
2022-10-28T00:37:53.937Z,57.30
2022-10-28T00:40:34.453Z,57.60
2022-10-28T00:43:12.250Z,57.30
2022-10-28T00:45:47.127Z,57.40
2022-10-28T00:48:22.006Z,57.50
2022-10-28T00:50:57.135Z,57.50
2022-10-28T00:53:33.011Z,57.30
2022-10-28T00:56:10.186Z,57.10
2022-10-28T00:58:47.188Z,57.30
2022-10-28T01:01:22.343Z,57.50
2022-10-28T01:03:58.045Z,57.50
2022-10-28T01:06:32.960Z,57.60
2022-10-28T01:09:07.850Z,57.50
2022-10-28T01:12:10.776Z,57.50
2022-10-28T01:15:19.888Z,57.70
2022-10-28T01:18:08.027Z,58.30
2022-10-28T01:21:20.289Z,58.50
2022-10-28T01:24:43.556Z,59.10
2022-10-28T01:28:19.085Z,59.70
2022-10-28T01:31:36.278Z,60.50
2022-10-28T01:34:22.935Z,61.00
2022-10-28T01:37:15.705Z,61.30
2022-10-28T01:40:20.998Z,62.10
2022-10-28T01:43:05.514Z,62.40
2022-10-28T01:46:00.642Z,63.00
2022-10-28T01:48:58.969Z,63.20
2022-10-28T01:51:43.211Z,63.40
2022-10-28T01:54:24.043Z,63.80
2022-10-28T01:57:00.496Z,64.10
2022-10-28T01:59:36.590Z,64.30
2022-10-28T02:02:11.468Z,64.40
2022-10-28T02:04:46.350Z,64.90
2022-10-28T02:07:21.297Z,65.00
2022-10-28T02:10:16.719Z,65.00
2022-10-28T02:12:56.462Z,65.10
2022-10-28T02:15:38.473Z,65.60
2022-10-28T02:18:53.015Z,65.50
2022-10-28T02:21:44.525Z,65.90
2022-10-28T02:24:44.316Z,65.50
2022-10-28T02:27:34.574Z,65.50
2022-10-28T02:30:20.601Z,65.60
2022-10-28T02:33:02.533Z,65.70
2022-10-28T02:35:53.599Z,65.70
2022-10-28T02:38:42.773Z,65.80
2022-10-28T02:41:33.065Z,66.10
2022-10-28T02:44:14.713Z,66.60
2022-10-28T02:46:51.402Z,66.50
2022-10-28T02:49:27.935Z,66.80
2022-10-28T02:52:06.298Z,66.80
2022-10-28T02:54:45.656Z,66.80
2022-10-28T02:57:25.530Z,67.00
2022-10-28T03:00:06.799Z,67.40
2022-10-28T03:02:41.797Z,67.20
2022-10-28T03:05:17.651Z,66.90
2022-10-28T03:07:52.669Z,67.10
2022-10-28T03:10:27.858Z,66.90
2022-10-28T03:13:02.781Z,66.50
2022-10-28T03:15:37.728Z,66.60
2022-10-28T03:18:12.666Z,66.40
2022-10-28T03:20:47.697Z,66.20
2022-10-28T03:23:22.617Z,65.80
2022-10-28T03:25:57.529Z,65.90
2022-10-28T03:28:32.385Z,65.70
2022-10-28T03:31:07.300Z,65.50
2022-10-28T03:33:42.312Z,65.20
2022-10-28T03:36:17.142Z,65.40
2022-10-28T03:38:52.266Z,65.60
2022-10-28T03:41:27.178Z,65.20
2022-10-28T03:44:02.104Z,65.20
2022-10-28T03:46:36.973Z,65.30
2022-10-28T03:49:11.876Z,65.30
2022-10-28T03:51:46.717Z,65.20
2022-10-28T03:54:21.632Z,65.20
2022-10-28T03:56:56.501Z,65.10
2022-10-28T03:59:31.375Z,65.00
2022-10-28T04:02:06.362Z,64.70
2022-10-28T04:04:41.873Z,64.20
2022-10-28T04:07:16.740Z,64.00
2022-10-28T04:09:51.680Z,64.10
2022-10-28T04:12:26.624Z,63.80
2022-10-28T04:15:01.598Z,63.60
2022-10-28T04:17:36.616Z,63.50
2022-10-28T04:20:12.032Z,63.90
2022-10-28T04:22:47.213Z,63.90
2022-10-28T04:25:23.565Z,63.90
2022-10-28T04:27:58.552Z,63.50
2022-10-28T04:30:33.512Z,63.80
2022-10-28T04:33:12.358Z,63.60
2022-10-28T04:35:47.521Z,63.30
2022-10-28T04:41:03.765Z,63.50
2022-10-28T04:43:38.623Z,63.40
2022-10-28T04:46:13.649Z,63.80
2022-10-28T04:48:48.790Z,63.50
2022-10-28T04:51:23.664Z,63.50
2022-10-28T04:53:58.559Z,63.50
2022-10-28T04:56:33.437Z,63.50
2022-10-28T04:59:08.342Z,63.80
2022-10-28T05:01:43.476Z,63.50
2022-10-28T05:04:19.568Z,63.30
2022-10-28T05:06:54.478Z,63.20
2022-10-28T05:09:29.386Z,63.00
2022-10-28T05:12:04.544Z,63.10
2022-10-28T05:14:39.433Z,62.80
2022-10-28T05:17:14.313Z,62.80
2022-10-28T05:19:50.261Z,62.30
2022-10-28T05:22:25.184Z,62.00
2022-10-28T05:25:00.112Z,61.90
2022-10-28T05:27:34.940Z,61.90
2022-10-28T05:30:10.868Z,61.60
2022-10-28T05:32:47.449Z,61.90
2022-10-28T05:35:24.253Z,62.40
2022-10-28T05:37:59.579Z,62.60
2022-10-28T05:40:34.661Z,62.80
2022-10-28T05:43:10.516Z,63.10
2022-10-28T05:45:52.845Z,63.30
2022-10-28T05:48:28.563Z,63.70
2022-10-28T05:51:03.535Z,63.80
2022-10-28T05:53:38.439Z,64.10
2022-10-28T05:56:13.317Z,64.40
2022-10-28T06:01:25.308Z,65.00
2022-10-28T06:04:00.508Z,65.00
2022-10-28T06:06:35.476Z,65.00
2022-10-28T06:09:10.362Z,65.40
2022-10-28T06:11:43.772Z,65.10
2022-10-28T06:14:18.686Z,65.50
2022-10-28T06:16:53.594Z,65.60
2022-10-28T06:19:28.492Z,65.80
2022-10-28T06:22:04.490Z,65.70
2022-10-28T06:24:39.373Z,64.70
2022-10-28T06:27:14.258Z,64.80
2022-10-28T06:29:49.129Z,64.70
2022-10-28T06:32:24.044Z,64.70
2022-10-28T06:34:59.089Z,64.40
2022-10-28T06:37:34.069Z,64.60
2022-10-28T06:40:09.469Z,64.30
2022-10-28T06:42:44.368Z,64.40
2022-10-28T06:45:19.270Z,63.90
2022-10-28T06:48:01.446Z,63.80
2022-10-28T06:50:36.732Z,63.50
2022-10-28T06:53:11.650Z,63.40
2022-10-28T06:55:53.892Z,63.00
2022-10-28T06:58:28.828Z,63.00
2022-10-28T07:01:05.459Z,62.50
2022-10-28T07:03:41.708Z,62.20
2022-10-28T07:06:17.570Z,61.50
2022-10-28T07:08:52.569Z,61.10
2022-10-28T07:11:28.088Z,60.90
2022-10-28T07:14:03.095Z,60.80
2022-10-28T07:16:38.001Z,60.80
2022-10-28T07:19:12.938Z,60.80
2022-10-28T07:21:48.347Z,59.70
2022-10-28T07:24:23.323Z,59.50
2022-10-28T07:26:58.392Z,58.90
2022-10-28T07:29:33.281Z,58.70
2022-10-28T07:32:08.258Z,58.40
2022-10-28T07:34:43.194Z,57.40
2022-10-28T07:37:18.083Z,54.00
2022-10-28T07:39:53.007Z,53.90
2022-10-28T07:42:27.847Z,53.90
2022-10-28T07:45:04.009Z,53.90
2022-10-28T07:47:39.149Z,53.60
2022-10-28T07:50:14.194Z,52.70
2022-10-28T07:52:49.019Z,52.00
2022-10-28T07:55:24.029Z,51.00
2022-10-28T07:57:59.287Z,50.50
2022-10-28T08:00:34.369Z,49.90
2022-10-28T08:03:09.275Z,50.00
2022-10-28T08:05:45.015Z,49.60
2022-10-28T08:08:19.826Z,49.10
2022-10-28T08:10:54.688Z,48.90
2022-10-28T08:13:29.564Z,48.60
2022-10-28T08:16:04.774Z,48.30
2022-10-28T08:18:40.156Z,48.30
2022-10-28T08:21:16.349Z,48.40
2022-10-28T08:23:51.387Z,48.40
2022-10-28T08:26:26.277Z,48.30
2022-10-28T08:29:01.541Z,48.20
2022-10-28T08:31:36.508Z,48.10
2022-10-28T08:34:11.582Z,47.90
2022-10-28T08:36:46.512Z,47.60
2022-10-28T08:39:21.448Z,47.40
2022-10-28T08:42:23.914Z,47.10
2022-10-28T08:45:21.055Z,47.00
2022-10-28T08:48:14.585Z,46.50
2022-10-28T08:51:01.472Z,44.60
2022-10-28T08:53:54.312Z,44.30
2022-10-28T08:56:35.768Z,43.90
2022-10-28T08:59:13.867Z,44.10
2022-10-28T09:02:03.665Z,44.50
2022-10-28T09:04:40.629Z,44.50
2022-10-28T09:07:21.507Z,44.10
2022-10-28T09:09:56.593Z,43.80
2022-10-28T09:12:48.729Z,43.60
2022-10-28T09:15:46.184Z,43.40
2022-10-28T09:18:30.832Z,43.50
2022-10-28T09:21:34.973Z,43.60
2022-10-28T09:24:20.900Z,43.60
2022-10-28T09:27:31.299Z,43.50
2022-10-28T09:30:38.723Z,43.20
2022-10-28T09:33:51.339Z,42.20
2022-10-28T09:36:36.245Z,41.60
2022-10-28T09:39:26.813Z,41.70
2022-10-28T09:42:04.630Z,41.90
2022-10-28T09:44:54.841Z,41.90
2022-10-28T09:47:54.292Z,42.20
2022-10-28T09:50:32.900Z,42.20
2022-10-28T09:53:47.373Z,42.30
2022-10-28T09:56:22.423Z,42.20
2022-10-28T09:59:02.999Z,41.20
2022-10-28T10:01:41.549Z,41.00
2022-10-28T10:04:23.699Z,41.00
2022-10-28T10:07:08.582Z,41.20
2022-10-28T10:09:44.263Z,41.30
2022-10-28T10:12:19.328Z,41.00
2022-10-28T10:14:56.949Z,40.70
2022-10-28T10:17:46.276Z,40.40
2022-10-28T10:20:21.664Z,40.10
2022-10-28T10:22:56.988Z,39.80
2022-10-28T10:25:32.242Z,39.90
2022-10-28T10:28:16.317Z,39.90
2022-10-28T10:31:04.740Z,39.60
2022-10-28T10:33:40.717Z,38.90
2022-10-28T10:36:21.050Z,38.50
2022-10-28T10:39:02.325Z,38.40
2022-10-28T10:41:40.875Z,38.20
2022-10-28T10:44:21.892Z,37.80
2022-10-28T10:47:04.900Z,37.90
2022-10-28T10:49:41.477Z,38.00
2022-10-28T10:52:22.724Z,38.20
2022-10-28T10:55:21.295Z,38.00
2022-10-28T10:57:57.289Z,38.10
2022-10-28T11:00:38.004Z,38.10
2022-10-28T11:03:33.021Z,38.20
2022-10-28T11:06:23.636Z,37.90
2022-10-28T11:09:20.929Z,37.70
2022-10-28T11:11:56.319Z,37.60
2022-10-28T11:14:32.989Z,36.80
2022-10-28T11:17:28.252Z,37.10
2022-10-28T11:20:53.447Z,37.40
2022-10-28T11:23:49.584Z,37.60
2022-10-28T11:26:25.273Z,37.70
2022-10-28T11:29:14.701Z,37.60
2022-10-28T11:32:02.354Z,37.40
2022-10-28T11:35:22.301Z,37.50
2022-10-28T11:38:36.319Z,37.80
2022-10-28T11:41:27.543Z,37.50
2022-10-28T11:44:11.957Z,37.60
2022-10-28T11:47:07.908Z,37.60
2022-10-28T11:50:21.781Z,37.40
2022-10-28T11:53:53.972Z,37.50
2022-10-28T11:56:48.464Z,37.60
2022-10-28T12:00:04.089Z,37.80
2022-10-28T12:03:08.656Z,37.70
2022-10-28T12:06:20.340Z,37.70
2022-10-28T12:09:15.011Z,37.60
2022-10-28T12:12:16.660Z,37.00
2022-10-28T12:15:14.821Z,37.00
2022-10-28T12:17:58.159Z,36.90
2022-10-28T12:20:53.419Z,36.80
2022-10-28T12:23:32.062Z,36.90
2022-10-28T12:26:13.752Z,37.00
2022-10-28T12:29:03.637Z,37.40
2022-10-28T12:31:46.029Z,37.70
2022-10-28T12:34:32.014Z,38.00
2022-10-28T12:37:21.205Z,38.20
2022-10-28T12:40:06.768Z,37.70
2022-10-28T12:42:57.952Z,36.40
2022-10-28T12:45:33.655Z,36.40
2022-10-28T12:48:28.199Z,35.80
2022-10-28T12:51:11.302Z,35.30
2022-10-28T12:53:57.525Z,35.70
2022-10-28T12:56:52.733Z,35.70
2022-10-28T12:59:58.568Z,35.60
2022-10-28T13:03:01.466Z,35.80
2022-10-28T13:05:54.140Z,35.90
2022-10-28T13:08:40.751Z,35.20
2022-10-28T13:11:47.476Z,36.40
2022-10-28T13:15:05.697Z,36.60
2022-10-28T13:18:03.294Z,35.10
2022-10-28T13:20:54.358Z,36.50
2022-10-28T13:24:13.714Z,36.60
2022-10-28T13:26:49.576Z,36.50
2022-10-28T13:29:29.575Z,35.90
2022-10-28T13:32:04.647Z,35.90
2022-10-28T13:34:41.008Z,35.00
2022-10-28T13:37:22.974Z,35.20
2022-10-28T13:39:57.929Z,34.40
2022-10-28T13:42:48.202Z,33.80
2022-10-28T13:45:53.698Z,35.50
2022-10-28T13:48:48.506Z,34.80
2022-10-28T13:51:23.355Z,35.00
2022-10-28T13:53:59.165Z,34.40
2022-10-28T13:56:46.111Z,33.20
2022-10-28T13:59:29.292Z,33.40
2022-10-28T14:02:40.425Z,35.10
2022-10-28T14:05:24.968Z,34.60
2022-10-28T14:08:29.642Z,34.60
2022-10-28T14:11:14.431Z,35.30
2022-10-28T14:14:02.082Z,35.20
2022-10-28T14:16:44.207Z,34.90
2022-10-28T14:19:23.089Z,35.20
2022-10-28T14:22:06.740Z,35.40
2022-10-28T14:24:43.568Z,34.90
2022-10-28T14:27:41.638Z,34.80
2022-10-28T14:30:21.271Z,35.30
2022-10-28T14:33:19.074Z,35.30
2022-10-28T14:36:07.920Z,36.20
2022-10-28T14:38:57.942Z,36.60
2022-10-28T14:41:47.982Z,36.50
2022-10-28T14:45:11.591Z,36.90
2022-10-28T14:47:54.601Z,37.10
2022-10-28T14:50:40.768Z,36.90
2022-10-28T14:53:30.503Z,37.00
2022-10-28T14:59:38.453Z,37.10
2022-10-28T15:02:21.175Z,37.00
2022-10-28T15:05:12.739Z,36.70
2022-10-28T15:07:48.442Z,37.20
2022-10-28T15:10:30.204Z,37.50
2022-10-28T15:13:05.090Z,38.00
2022-10-28T15:15:52.716Z,38.20
2022-10-28T15:18:27.639Z,38.00
2022-10-28T15:21:16.489Z,38.10
2022-10-28T15:24:02.600Z,38.20
2022-10-28T15:26:37.598Z,38.60
2022-10-28T15:29:12.509Z,38.30
2022-10-28T15:32:13.462Z,38.10
2022-10-28T15:34:49.445Z,38.20
2022-10-28T15:37:29.608Z,38.20
2022-10-28T15:40:34.597Z,38.40
2022-10-28T15:43:25.427Z,38.50
2022-10-28T15:46:15.344Z,38.80
2022-10-28T15:48:55.454Z,38.70
2022-10-28T15:51:30.288Z,38.70
2022-10-28T15:54:18.652Z,38.70
2022-10-28T15:56:58.893Z,38.90
2022-10-28T15:59:33.735Z,38.90
2022-10-28T16:02:41.840Z,39.00
2022-10-28T16:05:32.078Z,39.40
2022-10-28T16:08:25.471Z,38.90
2022-10-28T16:11:04.245Z,39.00
2022-10-28T16:13:47.157Z,38.90
2022-10-28T16:16:28.127Z,38.80
2022-10-28T16:19:09.466Z,39.30
2022-10-28T16:21:44.676Z,39.40
2022-10-28T16:24:19.591Z,39.50
2022-10-28T16:26:54.618Z,39.70
2022-10-28T16:29:29.430Z,39.60
2022-10-28T16:32:05.048Z,39.60
2022-10-28T16:34:40.374Z,39.70
2022-10-28T16:37:23.740Z,39.90
2022-10-28T16:39:58.677Z,40.10
2022-10-28T16:42:33.655Z,40.30
2022-10-28T16:45:14.696Z,40.50
2022-10-28T16:47:49.577Z,40.70
2022-10-28T16:50:24.484Z,40.30
2022-10-28T16:52:59.450Z,40.20
2022-10-28T16:55:34.406Z,40.40
2022-10-28T16:58:09.485Z,40.40
2022-10-28T17:00:44.829Z,40.60
2022-10-28T17:03:19.896Z,40.80
2022-10-28T17:05:54.779Z,40.70
2022-10-28T17:08:56.616Z,40.90
2022-10-28T17:11:24.600Z,41.00
2022-10-28T17:13:59.621Z,41.20
2022-10-28T17:16:38.073Z,41.40
2022-10-28T17:19:15.601Z,41.50
2022-10-28T17:21:50.548Z,41.50
2022-10-28T17:24:25.475Z,41.80
2022-10-28T17:27:01.046Z,41.90
2022-10-28T17:29:36.081Z,42.10
2022-10-28T17:32:11.283Z,42.30
2022-10-28T17:34:46.252Z,42.40
2022-10-28T17:37:21.149Z,42.70
2022-10-28T17:39:56.993Z,43.00
2022-10-28T17:42:32.177Z,43.30
2022-10-28T17:45:08.005Z,43.50
2022-10-28T17:47:43.020Z,43.90
2022-10-28T17:50:18.273Z,44.10
2022-10-28T17:52:53.745Z,44.50
2022-10-28T17:55:28.889Z,44.70
2022-10-28T17:58:03.784Z,45.00
2022-10-28T18:00:38.719Z,45.10
2022-10-28T18:03:14.127Z,45.30
2022-10-28T18:05:48.971Z,45.50
2022-10-28T18:08:23.990Z,46.00
2022-10-28T18:11:00.061Z,46.50
2022-10-28T18:13:37.740Z,47.00
2022-10-28T18:16:15.957Z,47.20
2022-10-28T18:18:51.829Z,47.80
2022-10-28T18:21:26.761Z,47.80
2022-10-28T18:24:04.530Z,48.00
2022-10-28T18:26:40.823Z,48.30
2022-10-28T18:29:15.788Z,48.40
2022-10-28T18:31:50.823Z,48.50
2022-10-28T18:34:25.674Z,48.60
2022-10-28T18:37:00.613Z,48.70
2022-10-28T18:39:35.598Z,49.00
2022-10-28T18:42:12.366Z,49.20
2022-10-28T18:44:47.630Z,49.50
2022-10-28T18:47:22.538Z,49.70
2022-10-28T18:49:58.220Z,49.90
2022-10-28T18:52:33.088Z,50.20
2022-10-28T18:55:08.552Z,50.40
2022-10-28T18:57:43.396Z,50.40
2022-10-28T19:00:19.904Z,50.50
2022-10-28T19:05:34.799Z,50.30
2022-10-28T19:08:09.693Z,50.30
2022-10-28T19:10:44.547Z,50.20
2022-10-28T19:13:19.457Z,50.00
2022-10-28T19:15:54.602Z,49.70
2022-10-28T19:18:30.366Z,49.40
2022-10-28T19:21:15.612Z,49.00
2022-10-28T19:23:50.911Z,48.70
2022-10-28T19:26:25.947Z,48.40
2022-10-28T19:29:00.980Z,48.40
2022-10-28T19:31:37.960Z,48.30
2022-10-28T19:34:14.750Z,48.30
2022-10-28T19:36:49.794Z,48.30
2022-10-28T19:39:24.793Z,48.50
2022-10-28T19:41:59.721Z,48.90
2022-10-28T19:44:34.625Z,49.40
2022-10-28T19:47:09.652Z,49.80
2022-10-28T19:49:44.626Z,50.30
2022-10-28T19:52:20.083Z,50.70
2022-10-28T19:54:54.971Z,50.80
2022-10-28T19:57:29.814Z,51.00
2022-10-28T20:00:05.696Z,50.80
2022-10-28T20:02:47.803Z,50.90
2022-10-28T20:05:22.684Z,51.00
2022-10-28T20:07:57.712Z,50.80
2022-10-28T20:10:33.014Z,50.80
2022-10-28T20:13:08.300Z,50.80
2022-10-28T20:15:43.256Z,50.70
2022-10-28T20:18:18.232Z,50.90
2022-10-28T20:20:53.132Z,51.10
2022-10-28T20:23:29.043Z,51.40
2022-10-28T20:26:04.676Z,51.50
2022-10-28T20:28:40.200Z,51.50
2022-10-28T20:31:18.625Z,51.30
2022-10-28T20:34:00.522Z,51.10
2022-10-28T20:36:41.478Z,51.00
2022-10-28T20:39:20.730Z,51.00
2022-10-28T20:41:55.681Z,50.70
2022-10-28T20:44:30.539Z,51.00
2022-10-28T20:47:05.545Z,50.50
2022-10-28T20:49:42.612Z,50.40
2022-10-28T20:52:17.515Z,50.30
2022-10-28T20:54:52.520Z,49.90
2022-10-28T20:57:27.366Z,49.50
2022-10-28T21:00:03.740Z,49.50
2022-10-28T21:02:38.907Z,49.70
2022-10-28T21:05:13.916Z,50.10
2022-10-28T21:07:48.853Z,50.40
2022-10-28T21:10:24.356Z,51.10
2022-10-28T21:12:59.246Z,51.00
2022-10-28T21:15:36.984Z,51.20
2022-10-28T21:18:12.545Z,51.50
2022-10-28T21:20:47.498Z,51.70
2022-10-28T21:23:23.472Z,51.90
2022-10-28T21:26:01.680Z,52.20
2022-10-28T21:28:37.021Z,52.50
2022-10-28T21:31:17.966Z,52.80
2022-10-28T21:33:53.464Z,53.30
2022-10-28T21:36:30.749Z,53.70
2022-10-28T21:39:05.676Z,54.10
2022-10-28T21:41:40.569Z,54.30
2022-10-28T21:44:15.427Z,55.20
2022-10-28T21:46:50.333Z,55.20
2022-10-28T21:49:25.182Z,55.70
2022-10-28T21:52:00.002Z,56.30
2022-10-28T21:54:34.932Z,56.80
2022-10-28T21:57:10.027Z,57.40
2022-10-28T21:59:44.992Z,57.60
2022-10-28T22:02:19.946Z,57.80
2022-10-28T22:04:54.911Z,58.00
2022-10-28T22:07:30.365Z,57.80
2022-10-28T22:10:05.840Z,58.10
2022-10-28T22:12:40.720Z,57.50
2022-10-28T22:15:15.629Z,57.60
2022-10-28T22:17:50.565Z,57.50
2022-10-28T22:23:05.246Z,57.30
2022-10-28T22:25:40.204Z,57.40
2022-10-28T22:28:15.160Z,57.60
2022-10-28T22:30:50.074Z,57.90
2022-10-28T22:33:25.077Z,58.50
2022-10-28T22:36:03.123Z,58.80
2022-10-28T22:38:38.382Z,59.00
2022-10-28T22:41:29.211Z,59.50
2022-10-28T22:44:04.636Z,59.70
2022-10-28T22:46:41.095Z,60.40
2022-10-28T22:49:16.034Z,61.20
2022-10-28T22:51:51.104Z,62.00
2022-10-28T22:54:25.940Z,62.30
2022-10-28T22:57:01.810Z,62.50
2022-10-28T22:59:36.737Z,62.90
2022-10-28T23:02:11.733Z,63.40
2022-10-28T23:04:46.684Z,63.60
2022-10-28T23:07:21.545Z,64.10
2022-10-28T23:09:58.708Z,64.00
2022-10-28T23:12:33.576Z,64.40
2022-10-28T23:15:08.767Z,65.20
2022-10-28T23:17:49.282Z,65.50
2022-10-28T23:20:25.526Z,66.40
2022-10-28T23:23:00.384Z,66.70
2022-10-28T23:25:35.301Z,66.70
2022-10-28T23:28:10.238Z,67.00
2022-10-28T23:30:45.182Z,67.40
2022-10-28T23:33:20.319Z,67.50
2022-10-28T23:36:00.020Z,67.40
2022-10-28T23:38:34.867Z,67.40
2022-10-28T23:41:15.818Z,67.50
2022-10-28T23:43:50.888Z,67.60
2022-10-28T23:46:25.891Z,67.60
2022-10-28T23:49:00.770Z,68.10
2022-10-28T23:51:35.598Z,68.20
2022-10-28T23:54:11.281Z,68.40
2022-10-28T23:56:46.178Z,68.50
2022-10-28T23:59:21.108Z,68.60
